sensor_id;sensor_type;location;lat;lon;timestamp;temperature;humidity
39237;DHT22;36851;49.996;8.268;2022-09-02T00:01:32;25.50;78.50
39237;DHT22;36851;49.996;8.268;2022-09-02T00:04:04;25.50;78.50
39237;DHT22;36851;49.996;8.268;2022-09-02T00:06:32;25.60;78.60
39237;DHT22;36851;49.996;8.268;2022-09-02T00:08:59;25.50;78.50
39237;DHT22;36851;49.996;8.268;2022-09-02T00:11:28;25.60;78.60
39237;DHT22;36851;49.996;8.268;2022-09-02T00:13:56;25.50;78.50
39237;DHT22;36851;49.996;8.268;2022-09-02T00:16:24;25.60;78.60
39237;DHT22;36851;49.996;8.268;2022-09-02T00:18:52;25.50;78.60
39237;DHT22;36851;49.996;8.268;2022-09-02T00:21:19;25.50;78.60
39237;DHT22;36851;49.996;8.268;2022-09-02T00:23:47;25.50;78.50
39237;DHT22;36851;49.996;8.268;2022-09-02T00:26:14;25.50;78.60
39237;DHT22;36851;49.996;8.268;2022-09-02T00:28:41;25.50;78.60
39237;DHT22;36851;49.996;8.268;2022-09-02T00:31:25;25.50;78.60
39237;DHT22;36851;49.996;8.268;2022-09-02T00:33:53;25.50;78.60
39237;DHT22;36851;49.996;8.268;2022-09-02T00:36:21;25.50;78.60
39237;DHT22;36851;49.996;8.268;2022-09-02T00:38:48;25.50;78.60
39237;DHT22;36851;49.996;8.268;2022-09-02T00:41:17;25.50;78.60
39237;DHT22;36851;49.996;8.268;2022-09-02T00:46:16;25.50;78.60
39237;DHT22;36851;49.996;8.268;2022-09-02T00:48:45;25.50;78.60
39237;DHT22;36851;49.996;8.268;2022-09-02T00:51:14;25.50;78.60
39237;DHT22;36851;49.996;8.268;2022-09-02T00:53:43;25.50;78.60
39237;DHT22;36851;49.996;8.268;2022-09-02T00:56:12;25.50;78.70
39237;DHT22;36851;49.996;8.268;2022-09-02T00:58:40;25.50;79.20
39237;DHT22;36851;49.996;8.268;2022-09-02T01:01:09;25.50;78.60
39237;DHT22;36851;49.996;8.268;2022-09-02T01:03:38;25.50;78.60
39237;DHT22;36851;49.996;8.268;2022-09-02T01:06:06;25.50;78.60
39237;DHT22;36851;49.996;8.268;2022-09-02T01:08:34;25.50;78.70
39237;DHT22;36851;49.996;8.268;2022-09-02T01:11:02;25.50;78.70
39237;DHT22;36851;49.996;8.268;2022-09-02T01:13:35;25.40;78.60
39237;DHT22;36851;49.996;8.268;2022-09-02T01:18:43;25.40;78.60
39237;DHT22;36851;49.996;8.268;2022-09-02T01:21:11;25.50;78.70
39237;DHT22;36851;49.996;8.268;2022-09-02T01:23:38;25.50;78.70
39237;DHT22;36851;49.996;8.268;2022-09-02T01:26:06;25.40;78.70
39237;DHT22;36851;49.996;8.268;2022-09-02T01:28:33;25.40;78.60
39237;DHT22;36851;49.996;8.268;2022-09-02T01:31:00;25.40;78.60
39237;DHT22;36851;49.996;8.268;2022-09-02T01:33:28;25.40;78.60
39237;DHT22;36851;49.996;8.268;2022-09-02T01:35:58;25.40;78.60
39237;DHT22;36851;49.996;8.268;2022-09-02T01:38:25;25.40;78.70
39237;DHT22;36851;49.996;8.268;2022-09-02T01:40:53;25.40;78.70
39237;DHT22;36851;49.996;8.268;2022-09-02T01:43:21;25.40;78.70
39237;DHT22;36851;49.996;8.268;2022-09-02T01:45:50;25.40;78.70
39237;DHT22;36851;49.996;8.268;2022-09-02T01:48:20;25.40;78.70
39237;DHT22;36851;49.996;8.268;2022-09-02T01:50:51;25.40;78.70
39237;DHT22;36851;49.996;8.268;2022-09-02T01:53:18;25.40;78.70
39237;DHT22;36851;49.996;8.268;2022-09-02T01:55:46;25.40;78.70
39237;DHT22;36851;49.996;8.268;2022-09-02T01:58:13;25.40;78.70
39237;DHT22;36851;49.996;8.268;2022-09-02T02:00:40;25.40;78.70
39237;DHT22;36851;49.996;8.268;2022-09-02T02:03:07;25.40;78.70
39237;DHT22;36851;49.996;8.268;2022-09-02T02:05:35;25.40;78.70
39237;DHT22;36851;49.996;8.268;2022-09-02T02:08:03;25.40;78.70
39237;DHT22;36851;49.996;8.268;2022-09-02T02:10:30;25.40;78.70
39237;DHT22;36851;49.996;8.268;2022-09-02T02:12:59;25.40;78.70
39237;DHT22;36851;49.996;8.268;2022-09-02T02:15:30;25.40;78.70
39237;DHT22;36851;49.996;8.268;2022-09-02T02:17:56;25.40;78.70
39237;DHT22;36851;49.996;8.268;2022-09-02T02:20:24;25.40;78.70
39237;DHT22;36851;49.996;8.268;2022-09-02T02:22:53;25.40;78.70
39237;DHT22;36851;49.996;8.268;2022-09-02T02:25:20;25.40;79.30
39237;DHT22;36851;49.996;8.268;2022-09-02T02:27:51;25.40;79.30
39237;DHT22;36851;49.996;8.268;2022-09-02T02:30:20;25.40;78.70
39237;DHT22;36851;49.996;8.268;2022-09-02T02:32:47;25.30;78.60
39237;DHT22;36851;49.996;8.268;2022-09-02T02:35:17;25.30;78.60
39237;DHT22;36851;49.996;8.268;2022-09-02T02:37:46;25.30;78.60
39237;DHT22;36851;49.996;8.268;2022-09-02T02:40:16;25.30;78.60
39237;DHT22;36851;49.996;8.268;2022-09-02T02:42:43;25.30;78.70
39237;DHT22;36851;49.996;8.268;2022-09-02T02:45:11;25.30;78.70
39237;DHT22;36851;49.996;8.268;2022-09-02T02:47:42;25.30;78.70
39237;DHT22;36851;49.996;8.268;2022-09-02T02:50:13;25.30;78.70
39237;DHT22;36851;49.996;8.268;2022-09-02T02:52:41;25.30;79.30
39237;DHT22;36851;49.996;8.268;2022-09-02T02:55:10;25.30;78.70
39237;DHT22;36851;49.996;8.268;2022-09-02T02:57:39;25.30;78.70
39237;DHT22;36851;49.996;8.268;2022-09-02T03:00:08;25.30;78.70
39237;DHT22;36851;49.996;8.268;2022-09-02T03:02:37;25.30;78.70
39237;DHT22;36851;49.996;8.268;2022-09-02T03:05:05;25.30;78.70
39237;DHT22;36851;49.996;8.268;2022-09-02T03:07:34;25.30;79.30
39237;DHT22;36851;49.996;8.268;2022-09-02T03:10:04;25.30;78.70
39237;DHT22;36851;49.996;8.268;2022-09-02T03:12:34;25.30;78.80
39237;DHT22;36851;49.996;8.268;2022-09-02T03:15:02;25.30;78.80
39237;DHT22;36851;49.996;8.268;2022-09-02T03:17:30;25.30;78.80
39237;DHT22;36851;49.996;8.268;2022-09-02T03:19:57;25.30;78.80
39237;DHT22;36851;49.996;8.268;2022-09-02T03:22:28;25.20;78.70
39237;DHT22;36851;49.996;8.268;2022-09-02T03:24:55;25.20;78.70
39237;DHT22;36851;49.996;8.268;2022-09-02T03:27:22;25.20;78.70
39237;DHT22;36851;49.996;8.268;2022-09-02T03:29:50;25.20;78.70
39237;DHT22;36851;49.996;8.268;2022-09-02T03:32:17;25.20;78.70
39237;DHT22;36851;49.996;8.268;2022-09-02T03:34:46;25.20;78.70
39237;DHT22;36851;49.996;8.268;2022-09-02T03:37:13;25.20;78.80
39237;DHT22;36851;49.996;8.268;2022-09-02T03:39:41;25.20;78.80
39237;DHT22;36851;49.996;8.268;2022-09-02T03:42:08;25.20;78.70
39237;DHT22;36851;49.996;8.268;2022-09-02T03:44:46;25.20;78.70
39237;DHT22;36851;49.996;8.268;2022-09-02T03:47:14;25.20;78.70
39237;DHT22;36851;49.996;8.268;2022-09-02T03:49:46;25.20;78.70
39237;DHT22;36851;49.996;8.268;2022-09-02T03:52:14;25.20;78.80
39237;DHT22;36851;49.996;8.268;2022-09-02T03:54:41;25.20;78.80
39237;DHT22;36851;49.996;8.268;2022-09-02T03:57:08;25.20;78.80
39237;DHT22;36851;49.996;8.268;2022-09-02T03:59:36;25.20;78.80
39237;DHT22;36851;49.996;8.268;2022-09-02T04:02:03;25.20;78.80
39237;DHT22;36851;49.996;8.268;2022-09-02T04:04:32;25.20;78.80
39237;DHT22;36851;49.996;8.268;2022-09-02T04:06:59;25.20;78.80
39237;DHT22;36851;49.996;8.268;2022-09-02T04:09:27;25.20;78.80
39237;DHT22;36851;49.996;8.268;2022-09-02T04:11:54;25.20;78.80
39237;DHT22;36851;49.996;8.268;2022-09-02T04:14:21;25.20;78.80
39237;DHT22;36851;49.996;8.268;2022-09-02T04:23:35;25.20;78.80
39237;DHT22;36851;49.996;8.268;2022-09-02T04:26:07;25.10;78.80
39237;DHT22;36851;49.996;8.268;2022-09-02T04:28:34;25.20;79.40
39237;DHT22;36851;49.996;8.268;2022-09-02T04:31:03;25.10;78.80
39237;DHT22;36851;49.996;8.268;2022-09-02T04:33:31;25.10;78.80
39237;DHT22;36851;49.996;8.268;2022-09-02T04:35:58;25.10;78.80
39237;DHT22;36851;49.996;8.268;2022-09-02T04:38:25;25.10;78.80
39237;DHT22;36851;49.996;8.268;2022-09-02T04:40:53;25.10;78.80
39237;DHT22;36851;49.996;8.268;2022-09-02T04:43:21;25.10;78.80
39237;DHT22;36851;49.996;8.268;2022-09-02T04:45:50;25.10;78.80
39237;DHT22;36851;49.996;8.268;2022-09-02T04:48:18;25.10;78.80
39237;DHT22;36851;49.996;8.268;2022-09-02T04:50:47;25.10;78.80
39237;DHT22;36851;49.996;8.268;2022-09-02T04:53:15;25.10;78.80
39237;DHT22;36851;49.996;8.268;2022-09-02T04:55:43;25.10;78.80
39237;DHT22;36851;49.996;8.268;2022-09-02T04:58:12;25.10;78.80
39237;DHT22;36851;49.996;8.268;2022-09-02T05:00:41;25.10;78.80
39237;DHT22;36851;49.996;8.268;2022-09-02T05:03:11;25.00;78.80
39237;DHT22;36851;49.996;8.268;2022-09-02T05:05:41;25.10;78.80
39237;DHT22;36851;49.996;8.268;2022-09-02T05:08:10;25.10;78.80
39237;DHT22;36851;49.996;8.268;2022-09-02T05:10:40;25.10;78.80
39237;DHT22;36851;49.996;8.268;2022-09-02T05:13:07;25.10;78.80
39237;DHT22;36851;49.996;8.268;2022-09-02T05:15:37;25.10;78.80
39237;DHT22;36851;49.996;8.268;2022-09-02T05:18:06;25.10;78.80
39237;DHT22;36851;49.996;8.268;2022-09-02T05:20:34;25.00;78.80
39237;DHT22;36851;49.996;8.268;2022-09-02T05:23:05;25.00;78.80
39237;DHT22;36851;49.996;8.268;2022-09-02T05:25:32;25.00;78.80
39237;DHT22;36851;49.996;8.268;2022-09-02T05:27:59;25.00;78.80
39237;DHT22;36851;49.996;8.268;2022-09-02T05:30:27;25.00;78.80
39237;DHT22;36851;49.996;8.268;2022-09-02T05:32:54;25.00;78.80
39237;DHT22;36851;49.996;8.268;2022-09-02T05:35:22;25.00;78.80
39237;DHT22;36851;49.996;8.268;2022-09-02T05:37:51;25.00;78.80
39237;DHT22;36851;49.996;8.268;2022-09-02T05:40:23;25.00;78.80
39237;DHT22;36851;49.996;8.268;2022-09-02T05:42:55;25.00;78.90
39237;DHT22;36851;49.996;8.268;2022-09-02T05:45:22;25.00;78.80
39237;DHT22;36851;49.996;8.268;2022-09-02T05:47:50;25.00;78.90
39237;DHT22;36851;49.996;8.268;2022-09-02T05:50:18;25.00;78.80
39237;DHT22;36851;49.996;8.268;2022-09-02T05:52:50;25.00;78.90
39237;DHT22;36851;49.996;8.268;2022-09-02T05:55:20;25.00;78.90
39237;DHT22;36851;49.996;8.268;2022-09-02T05:57:48;25.00;78.90
39237;DHT22;36851;49.996;8.268;2022-09-02T06:00:15;25.00;78.90
39237;DHT22;36851;49.996;8.268;2022-09-02T06:02:53;25.00;78.90
39237;DHT22;36851;49.996;8.268;2022-09-02T06:05:33;25.00;78.90
39237;DHT22;36851;49.996;8.268;2022-09-02T06:08:07;25.00;78.90
39237;DHT22;36851;49.996;8.268;2022-09-02T06:10:39;25.00;78.90
39237;DHT22;36851;49.996;8.268;2022-09-02T06:13:07;25.00;78.90
39237;DHT22;36851;49.996;8.268;2022-09-02T06:15:39;25.00;78.90
39237;DHT22;36851;49.996;8.268;2022-09-02T06:18:06;25.00;78.90
39237;DHT22;36851;49.996;8.268;2022-09-02T06:20:39;25.00;78.80
39237;DHT22;36851;49.996;8.268;2022-09-02T06:23:06;25.00;78.80
39237;DHT22;36851;49.996;8.268;2022-09-02T06:25:35;25.00;78.80
39237;DHT22;36851;49.996;8.268;2022-09-02T06:28:03;25.00;78.80
39237;DHT22;36851;49.996;8.268;2022-09-02T06:30:38;25.00;78.80
39237;DHT22;36851;49.996;8.268;2022-09-02T06:33:06;25.00;78.80
39237;DHT22;36851;49.996;8.268;2022-09-02T06:35:38;25.00;78.80
39237;DHT22;36851;49.996;8.268;2022-09-02T06:38:09;25.00;78.80
39237;DHT22;36851;49.996;8.268;2022-09-02T06:40:45;25.00;78.80
39237;DHT22;36851;49.996;8.268;2022-09-02T06:43:13;25.00;78.80
39237;DHT22;36851;49.996;8.268;2022-09-02T06:45:53;25.00;78.80
39237;DHT22;36851;49.996;8.268;2022-09-02T06:48:21;25.00;78.80
39237;DHT22;36851;49.996;8.268;2022-09-02T06:50:49;25.00;78.80
39237;DHT22;36851;49.996;8.268;2022-09-02T06:53:16;25.00;78.80
39237;DHT22;36851;49.996;8.268;2022-09-02T06:55:45;25.00;78.90
39237;DHT22;36851;49.996;8.268;2022-09-02T06:58:12;25.00;78.90
39237;DHT22;36851;49.996;8.268;2022-09-02T07:00:40;25.00;78.90
39237;DHT22;36851;49.996;8.268;2022-09-02T07:03:08;25.00;78.80
39237;DHT22;36851;49.996;8.268;2022-09-02T07:05:58;25.00;78.80
39237;DHT22;36851;49.996;8.268;2022-09-02T07:08:27;25.00;78.80
39237;DHT22;36851;49.996;8.268;2022-09-02T07:10:55;25.00;78.80
39237;DHT22;36851;49.996;8.268;2022-09-02T07:13:23;25.00;78.80
39237;DHT22;36851;49.996;8.268;2022-09-02T07:15:50;25.10;78.80
39237;DHT22;36851;49.996;8.268;2022-09-02T07:18:19;25.10;78.80
39237;DHT22;36851;49.996;8.268;2022-09-02T07:20:47;25.10;78.80
39237;DHT22;36851;49.996;8.268;2022-09-02T07:23:14;25.10;79.40
39237;DHT22;36851;49.996;8.268;2022-09-02T07:25:43;25.10;78.80
39237;DHT22;36851;49.996;8.268;2022-09-02T07:28:11;25.10;78.80
39237;DHT22;36851;49.996;8.268;2022-09-02T07:30:40;25.10;78.80
39237;DHT22;36851;49.996;8.268;2022-09-02T07:33:12;25.10;78.80
39237;DHT22;36851;49.996;8.268;2022-09-02T07:35:42;25.10;78.80
39237;DHT22;36851;49.996;8.268;2022-09-02T07:38:10;25.20;78.90
39237;DHT22;36851;49.996;8.268;2022-09-02T07:40:38;25.20;78.90
39237;DHT22;36851;49.996;8.268;2022-09-02T07:43:08;25.20;78.90
39237;DHT22;36851;49.996;8.268;2022-09-02T07:45:36;25.20;78.90
39237;DHT22;36851;49.996;8.268;2022-09-02T07:48:05;25.20;78.90
39237;DHT22;36851;49.996;8.268;2022-09-02T07:50:36;25.20;79.00
39237;DHT22;36851;49.996;8.268;2022-09-02T07:53:06;25.20;78.90
39237;DHT22;36851;49.996;8.268;2022-09-02T07:55:35;25.20;79.00
39237;DHT22;36851;49.996;8.268;2022-09-02T07:58:04;25.20;79.00
39237;DHT22;36851;49.996;8.268;2022-09-02T08:00:32;25.20;78.90
39237;DHT22;36851;49.996;8.268;2022-09-02T08:03:05;25.20;78.90
39237;DHT22;36851;49.996;8.268;2022-09-02T08:05:38;25.20;78.90
39237;DHT22;36851;49.996;8.268;2022-09-02T08:08:06;25.20;78.90
39237;DHT22;36851;49.996;8.268;2022-09-02T08:10:33;25.20;79.00
39237;DHT22;36851;49.996;8.268;2022-09-02T08:13:02;25.20;79.00
39237;DHT22;36851;49.996;8.268;2022-09-02T08:15:31;25.30;79.10
39237;DHT22;36851;49.996;8.268;2022-09-02T08:17:59;25.30;79.00
39237;DHT22;36851;49.996;8.268;2022-09-02T08:20:26;25.30;79.00
39237;DHT22;36851;49.996;8.268;2022-09-02T08:22:53;25.30;79.60
39237;DHT22;36851;49.996;8.268;2022-09-02T08:25:38;25.30;79.00
39237;DHT22;36851;49.996;8.268;2022-09-02T08:28:06;25.30;79.00
39237;DHT22;36851;49.996;8.268;2022-09-02T08:30:34;25.30;79.10
39237;DHT22;36851;49.996;8.268;2022-09-02T08:33:01;25.30;79.00
39237;DHT22;36851;49.996;8.268;2022-09-02T08:35:28;25.30;79.10
39237;DHT22;36851;49.996;8.268;2022-09-02T08:37:57;25.30;79.10
39237;DHT22;36851;49.996;8.268;2022-09-02T08:40:33;25.40;79.20
39237;DHT22;36851;49.996;8.268;2022-09-02T08:43:00;25.40;79.20
39237;DHT22;36851;49.996;8.268;2022-09-02T08:45:32;25.40;79.20
39237;DHT22;36851;49.996;8.268;2022-09-02T08:48:10;25.40;79.20
39237;DHT22;36851;49.996;8.268;2022-09-02T08:50:41;25.40;79.20
39237;DHT22;36851;49.996;8.268;2022-09-02T08:53:15;25.40;79.20
39237;DHT22;36851;49.996;8.268;2022-09-02T09:03:37;25.40;79.30
39237;DHT22;36851;49.996;8.268;2022-09-02T09:08:51;25.40;79.30
39237;DHT22;36851;49.996;8.268;2022-09-02T09:11:22;25.40;79.30
39237;DHT22;36851;49.996;8.268;2022-09-02T09:19:20;25.40;79.30
39237;DHT22;36851;49.996;8.268;2022-09-02T09:21:48;25.40;79.30
39237;DHT22;36851;49.996;8.268;2022-09-02T09:24:25;25.40;79.30
39237;DHT22;36851;49.996;8.268;2022-09-02T09:26:54;25.40;79.30
39237;DHT22;36851;49.996;8.268;2022-09-02T09:29:22;25.40;79.30
39237;DHT22;36851;49.996;8.268;2022-09-02T09:31:56;25.40;79.30
39237;DHT22;36851;49.996;8.268;2022-09-02T09:34:45;25.40;79.30
39237;DHT22;36851;49.996;8.268;2022-09-02T09:37:11;25.40;79.30
39237;DHT22;36851;49.996;8.268;2022-09-02T09:39:53;25.40;79.40
39237;DHT22;36851;49.996;8.268;2022-09-02T09:42:29;25.40;79.40
39237;DHT22;36851;49.996;8.268;2022-09-02T09:44:56;25.40;79.40
39237;DHT22;36851;49.996;8.268;2022-09-02T09:47:25;25.40;79.40
39237;DHT22;36851;49.996;8.268;2022-09-02T09:49:53;25.40;79.40
39237;DHT22;36851;49.996;8.268;2022-09-02T09:52:31;25.50;79.50
39237;DHT22;36851;49.996;8.268;2022-09-02T09:57:50;25.40;79.40
39237;DHT22;36851;49.996;8.268;2022-09-02T10:00:19;25.40;79.40
39237;DHT22;36851;49.996;8.268;2022-09-02T10:02:51;25.50;79.50
39237;DHT22;36851;49.996;8.268;2022-09-02T10:11:01;25.50;79.50
39237;DHT22;36851;49.996;8.268;2022-09-02T10:13:30;25.40;79.30
39237;DHT22;36851;49.996;8.268;2022-09-02T10:23:56;25.40;79.30
39237;DHT22;36851;49.996;8.268;2022-09-02T10:26:44;25.40;79.30
39237;DHT22;36851;49.996;8.268;2022-09-02T10:34:33;25.40;79.20
39237;DHT22;36851;49.996;8.268;2022-09-02T10:47:36;25.50;79.20
39237;DHT22;36851;49.996;8.268;2022-09-02T10:57:57;25.50;79.20
39237;DHT22;36851;49.996;8.268;2022-09-02T11:00:27;25.40;79.10
39237;DHT22;36851;49.996;8.268;2022-09-02T11:05:49;25.50;79.00
39237;DHT22;36851;49.996;8.268;2022-09-02T11:08:33;25.50;79.00
39237;DHT22;36851;49.996;8.268;2022-09-02T11:11:07;25.50;79.00
39237;DHT22;36851;49.996;8.268;2022-09-02T11:13:45;25.50;79.00
39237;DHT22;36851;49.996;8.268;2022-09-02T11:16:17;25.50;79.00
39237;DHT22;36851;49.996;8.268;2022-09-02T11:19:04;25.50;79.00
39237;DHT22;36851;49.996;8.268;2022-09-02T11:24:25;25.50;79.10
39237;DHT22;36851;49.996;8.268;2022-09-02T11:32:54;25.50;79.00
39237;DHT22;36851;49.996;8.268;2022-09-02T11:35:24;25.50;79.00
39237;DHT22;36851;49.996;8.268;2022-09-02T11:38:17;25.50;79.00
39237;DHT22;36851;49.996;8.268;2022-09-02T11:51:07;25.50;79.00
39237;DHT22;36851;49.996;8.268;2022-09-02T11:53:41;25.50;79.00
39237;DHT22;36851;49.996;8.268;2022-09-02T11:56:17;25.50;79.00
39237;DHT22;36851;49.996;8.268;2022-09-02T11:58:46;25.50;79.00
39237;DHT22;36851;49.996;8.268;2022-09-02T12:03:45;25.50;79.00
39237;DHT22;36851;49.996;8.268;2022-09-02T12:06:32;25.50;78.90
39237;DHT22;36851;49.996;8.268;2022-09-02T12:09:01;25.50;78.90
39237;DHT22;36851;49.996;8.268;2022-09-02T12:11:39;25.50;78.90
39237;DHT22;36851;49.996;8.268;2022-09-02T12:14:09;25.50;78.90
39237;DHT22;36851;49.996;8.268;2022-09-02T12:16:43;25.50;78.90
39237;DHT22;36851;49.996;8.268;2022-09-02T12:22:20;25.50;78.80
39237;DHT22;36851;49.996;8.268;2022-09-02T12:24:28;25.50;78.80
39237;DHT22;36851;49.996;8.268;2022-09-02T12:27:18;25.50;78.80
39237;DHT22;36851;49.996;8.268;2022-09-02T12:29:47;25.50;78.80
39237;DHT22;36851;49.996;8.268;2022-09-02T12:35:09;25.50;78.70
39237;DHT22;36851;49.996;8.268;2022-09-02T12:37:50;25.50;78.70
39237;DHT22;36851;49.996;8.268;2022-09-02T12:40:24;25.50;78.70
39237;DHT22;36851;49.996;8.268;2022-09-02T12:42:58;25.50;78.70
39237;DHT22;36851;49.996;8.268;2022-09-02T12:45:29;25.50;78.60
39237;DHT22;36851;49.996;8.268;2022-09-02T12:48:01;25.50;78.60
39237;DHT22;36851;49.996;8.268;2022-09-02T12:50:51;25.50;78.70
39237;DHT22;36851;49.996;8.268;2022-09-02T12:55:55;25.50;78.80
39237;DHT22;36851;49.996;8.268;2022-09-02T12:58:23;25.50;78.90
39237;DHT22;36851;49.996;8.268;2022-09-02T13:05:55;25.60;78.80
39237;DHT22;36851;49.996;8.268;2022-09-02T13:14:04;25.60;78.80
39237;DHT22;36851;49.996;8.268;2022-09-02T13:29:27;25.80;79.20
39237;DHT22;36851;49.996;8.268;2022-09-02T13:32:00;25.80;79.20
39237;DHT22;36851;49.996;8.268;2022-09-02T13:34:30;25.90;79.20
39237;DHT22;36851;49.996;8.268;2022-09-02T13:36:58;25.90;79.20
39237;DHT22;36851;49.996;8.268;2022-09-02T13:39:25;25.90;79.10
39237;DHT22;36851;49.996;8.268;2022-09-02T13:41:53;26.00;79.10
39237;DHT22;36851;49.996;8.268;2022-09-02T13:44:24;26.00;79.00
39237;DHT22;36851;49.996;8.268;2022-09-02T13:46:52;26.00;78.90
39237;DHT22;36851;49.996;8.268;2022-09-02T13:49:21;26.00;78.80
39237;DHT22;36851;49.996;8.268;2022-09-02T13:51:49;26.10;78.80
39237;DHT22;36851;49.996;8.268;2022-09-02T13:54:27;26.10;78.70
39237;DHT22;36851;49.996;8.268;2022-09-02T13:56:55;26.20;78.70
39237;DHT22;36851;49.996;8.268;2022-09-02T13:59:32;26.20;78.60
39237;DHT22;36851;49.996;8.268;2022-09-02T14:02:00;26.30;78.60
39237;DHT22;36851;49.996;8.268;2022-09-02T14:04:41;26.30;78.50
39237;DHT22;36851;49.996;8.268;2022-09-02T14:07:08;26.30;78.50
39237;DHT22;36851;49.996;8.268;2022-09-02T14:09:36;26.40;78.40
39237;DHT22;36851;49.996;8.268;2022-09-02T14:12:05;26.40;78.40
39237;DHT22;36851;49.996;8.268;2022-09-02T14:14:32;26.40;78.30
39237;DHT22;36851;49.996;8.268;2022-09-02T14:17:19;26.50;78.30
39237;DHT22;36851;49.996;8.268;2022-09-02T14:19:47;26.50;78.20
39237;DHT22;36851;49.996;8.268;2022-09-02T14:22:25;26.60;78.20
39237;DHT22;36851;49.996;8.268;2022-09-02T14:24:52;26.60;78.10
39237;DHT22;36851;49.996;8.268;2022-09-02T14:27:20;26.60;78.00
39237;DHT22;36851;49.996;8.268;2022-09-02T14:29:54;26.70;78.10
39237;DHT22;36851;49.996;8.268;2022-09-02T14:32:23;26.70;78.00
39237;DHT22;36851;49.996;8.268;2022-09-02T14:37:45;26.80;77.80
39237;DHT22;36851;49.996;8.268;2022-09-02T14:40:13;26.80;77.80
39237;DHT22;36851;49.996;8.268;2022-09-02T14:42:47;26.80;77.60
39237;DHT22;36851;49.996;8.268;2022-09-02T14:45:28;26.90;77.60
39237;DHT22;36851;49.996;8.268;2022-09-02T14:47:56;26.90;77.60
39237;DHT22;36851;49.996;8.268;2022-09-02T14:50:30;27.00;77.50
39237;DHT22;36851;49.996;8.268;2022-09-02T14:53:00;27.00;77.50
39237;DHT22;36851;49.996;8.268;2022-09-02T14:58:06;27.10;77.30
39237;DHT22;36851;49.996;8.268;2022-09-02T15:00:33;27.00;77.30
39237;DHT22;36851;49.996;8.268;2022-09-02T15:03:00;27.00;77.40
39237;DHT22;36851;49.996;8.268;2022-09-02T15:05:28;26.90;77.40
39237;DHT22;36851;49.996;8.268;2022-09-02T15:07:55;26.80;77.60
39237;DHT22;36851;49.996;8.268;2022-09-02T15:10:22;26.70;77.70
39237;DHT22;36851;49.996;8.268;2022-09-02T15:12:50;26.60;77.90
39237;DHT22;36851;49.996;8.268;2022-09-02T15:15:18;26.60;78.10
39237;DHT22;36851;49.996;8.268;2022-09-02T15:17:45;26.50;78.20
39237;DHT22;36851;49.996;8.268;2022-09-02T15:20:13;26.40;78.20
39237;DHT22;36851;49.996;8.268;2022-09-02T15:22:40;26.40;79.00
39237;DHT22;36851;49.996;8.268;2022-09-02T15:25:09;26.30;78.50
39237;DHT22;36851;49.996;8.268;2022-09-02T15:27:36;26.30;78.50
39237;DHT22;36851;49.996;8.268;2022-09-02T15:30:04;26.30;78.60
39237;DHT22;36851;49.996;8.268;2022-09-02T15:32:32;26.30;78.70
39237;DHT22;36851;49.996;8.268;2022-09-02T15:34:59;26.20;78.70
39237;DHT22;36851;49.996;8.268;2022-09-02T15:37:26;26.20;78.70
39237;DHT22;36851;49.996;8.268;2022-09-02T15:39:53;26.20;78.70
39237;DHT22;36851;49.996;8.268;2022-09-02T15:42:21;26.20;78.80
39237;DHT22;36851;49.996;8.268;2022-09-02T15:44:49;26.10;78.70
39237;DHT22;36851;49.996;8.268;2022-09-02T15:47:16;26.10;78.70
39237;DHT22;36851;49.996;8.268;2022-09-02T15:49:43;26.10;78.70
39237;DHT22;36851;49.996;8.268;2022-09-02T15:52:10;26.10;78.80
39237;DHT22;36851;49.996;8.268;2022-09-02T15:54:37;26.10;78.80
39237;DHT22;36851;49.996;8.268;2022-09-02T15:57:04;26.10;78.80
39237;DHT22;36851;49.996;8.268;2022-09-02T15:59:32;26.10;78.90
39237;DHT22;36851;49.996;8.268;2022-09-02T16:01:59;26.00;78.80
39237;DHT22;36851;49.996;8.268;2022-09-02T16:04:26;26.00;78.90
39237;DHT22;36851;49.996;8.268;2022-09-02T16:06:53;26.00;78.90
39237;DHT22;36851;49.996;8.268;2022-09-02T16:09:21;26.00;78.90
39237;DHT22;36851;49.996;8.268;2022-09-02T16:11:49;26.00;78.90
39237;DHT22;36851;49.996;8.268;2022-09-02T16:14:17;26.00;78.90
39237;DHT22;36851;49.996;8.268;2022-09-02T16:16:47;26.00;78.80
39237;DHT22;36851;49.996;8.268;2022-09-02T16:19:19;26.00;78.80
39237;DHT22;36851;49.996;8.268;2022-09-02T16:21:47;26.00;79.20
39237;DHT22;36851;49.996;8.268;2022-09-02T16:24:15;26.00;78.80
39237;DHT22;36851;49.996;8.268;2022-09-02T16:26:43;26.00;78.80
39237;DHT22;36851;49.996;8.268;2022-09-02T16:29:11;25.90;78.70
39237;DHT22;36851;49.996;8.268;2022-09-02T16:31:43;25.90;78.70
39237;DHT22;36851;49.996;8.268;2022-09-02T16:34:23;26.00;78.70
39237;DHT22;36851;49.996;8.268;2022-09-02T16:36:50;26.00;78.80
39237;DHT22;36851;49.996;8.268;2022-09-02T16:39:17;25.90;78.70
39237;DHT22;36851;49.996;8.268;2022-09-02T16:41:48;25.90;78.70
39237;DHT22;36851;49.996;8.268;2022-09-02T16:44:17;25.90;78.70
39237;DHT22;36851;49.996;8.268;2022-09-02T16:46:48;25.90;78.70
39237;DHT22;36851;49.996;8.268;2022-09-02T16:49:16;25.90;78.70
39237;DHT22;36851;49.996;8.268;2022-09-02T16:51:44;25.90;78.70
39237;DHT22;36851;49.996;8.268;2022-09-02T16:54:12;25.90;78.70
39237;DHT22;36851;49.996;8.268;2022-09-02T16:56:47;25.90;78.70
39237;DHT22;36851;49.996;8.268;2022-09-02T16:59:14;25.90;78.70
39237;DHT22;36851;49.996;8.268;2022-09-02T17:01:41;25.90;78.70
39237;DHT22;36851;49.996;8.268;2022-09-02T17:04:09;25.90;78.70
39237;DHT22;36851;49.996;8.268;2022-09-02T17:06:37;25.90;78.70
39237;DHT22;36851;49.996;8.268;2022-09-02T17:09:08;25.90;78.70
39237;DHT22;36851;49.996;8.268;2022-09-02T17:11:36;25.80;78.70
39237;DHT22;36851;49.996;8.268;2022-09-02T17:14:09;25.80;78.60
39237;DHT22;36851;49.996;8.268;2022-09-02T17:16:40;25.80;79.20
39237;DHT22;36851;49.996;8.268;2022-09-02T17:19:08;25.80;78.60
39237;DHT22;36851;49.996;8.268;2022-09-02T17:21:37;25.80;78.60
39237;DHT22;36851;49.996;8.268;2022-09-02T17:24:05;25.80;78.60
39237;DHT22;36851;49.996;8.268;2022-09-02T17:26:33;25.80;78.60
39237;DHT22;36851;49.996;8.268;2022-09-02T17:29:06;25.80;78.60
39237;DHT22;36851;49.996;8.268;2022-09-02T17:31:33;25.80;78.60
39237;DHT22;36851;49.996;8.268;2022-09-02T17:34:00;25.80;78.60
39237;DHT22;36851;49.996;8.268;2022-09-02T17:36:28;25.80;78.60
39237;DHT22;36851;49.996;8.268;2022-09-02T17:38:57;25.80;78.60
39237;DHT22;36851;49.996;8.268;2022-09-02T17:41:25;25.80;78.50
39237;DHT22;36851;49.996;8.268;2022-09-02T17:44:11;25.80;78.50
39237;DHT22;36851;49.996;8.268;2022-09-02T17:46:40;25.80;78.50
39237;DHT22;36851;49.996;8.268;2022-09-02T17:49:07;25.80;78.50
39237;DHT22;36851;49.996;8.268;2022-09-02T17:51:43;25.80;79.10
39237;DHT22;36851;49.996;8.268;2022-09-02T17:54:11;25.80;78.50
39237;DHT22;36851;49.996;8.268;2022-09-02T17:56:53;25.80;78.50